17AK weather

Ketchikan /Temsco H/ Heliport
Ketchikan, Alaska, United States

Public forecast

Using degrees Fahrenheit for public forecast. Weather courtesy of forecast.io.

METAR (pilot weather report)

Closest report is Ketchikan International Airport, 1.8 nm (3.3 km) SSE. Retrieved 2019/07/23 14:23 UTC (12 minutes ago):

PAKT 231423Z 10003KT 10SM SCT005 OVC013 14/13 A3005

TAF (pilot weather forecast)

Closest forecast is Ketchikan International Airport, 1.8 nm (3.3 km) SSE. Retrieved 2019/07/23 12:33 UTC (2 hours ago):

TAF PAKT 231130Z 2312/2412 14005KT P6SM SCT025 BKN040 FM231500 14010KT P6SM VCSH BKN050 FM240600 14005KT P6SM VCSH SCT025 BKN050 AMD NOT SKED